Vera, Texas
Current Conditions -  °F | °C
As of 4:16 AM on Sunday 26 Oct 2014 (Local Time) from KF05 Reporting Station
Clear Clear  
Wind Chill: 61°   Ceiling: Unl
Heat Index: 61°   Visibility: 10mi
Dew Point: 52°   Wind: 7mph
Humidity: 72%   Direction: 210°SSW
Pressure: 29.96"   Gusts: NA
Location:  33.6337°N, 99.8039°W
Report Text: KF05 260916Z AUTO 21006KT 10SM CLR 16/11 A2996 RMK AO2
Loading
Personal Weather Stations






























Interactive Weather Map
Tropical Storm Tracking
New forecast layout! Learn more

10-Day Weather Forecast

Advertisements
Track Severe Weather on mobile